Time;durP1;ratioP1;P1;durP2;ratioP2;P2;SDS_P1;SDS_P2;PMS_P1;PMS_P2;Temp;Humidity;BMP_temperature;BMP_pressure;BME280_temperature;BME280_humidity;BME280_pressure;Samples;Min_cycle;Max_cycle;Signal;HPM_P1;HPM_P2
2023/06/01 00:02:15;;;;;;;5.18;2.92;;;;;17.70;98871.00;;;;5050577;28;20140;-61
2023/06/01 00:04:42;;;;;;;6.15;2.58;;;;;17.60;98867.00;;;;5050416;28;20080;-61
2023/06/01 00:07:10;;;;;;;4.50;2.88;;;;;17.60;98865.00;;;;5051665;28;20375;-63
2023/06/01 00:09:37;;;;;;;5.25;2.65;;;;;17.60;98865.00;;;;5051364;28;20128;-61
2023/06/01 00:12:05;;;;;;;5.35;2.85;;;;;17.50;98860.00;;;;5050475;28;20094;-63
2023/06/01 00:14:32;;;;;;;4.18;2.92;;;;;17.40;98870.00;;;;5051629;28;20049;-61
2023/06/01 00:16:58;;;;;;;7.93;3.25;;;;;17.20;98864.00;;;;5051855;28;20053;-62
2023/06/01 00:19:26;;;;;;;5.40;2.60;;;;;17.10;98862.00;;;;5055369;28;20409;-62
2023/06/01 00:21:54;;;;;;;4.40;2.70;;;;;17.00;98860.00;;;;5055282;28;20095;-62
2023/06/01 00:24:21;;;;;;;6.10;2.83;;;;;16.90;98855.00;;;;5054272;28;20048;-63
2023/06/01 00:26:48;;;;;;;4.10;2.65;;;;;16.80;98855.00;;;;5053929;28;20144;-63
2023/06/01 00:29:15;;;;;;;3.58;2.42;;;;;16.90;98850.00;;;;5053651;28;20045;-63
2023/06/01 00:31:42;;;;;;;3.72;2.38;;;;;16.90;98854.00;;;;5054185;28;20375;-62
2023/06/01 00:34:09;;;;;;;4.50;2.58;;;;;17.00;98850.00;;;;5054897;28;20037;-61
2023/06/01 00:36:36;;;;;;;2.88;2.47;;;;;16.90;98852.00;;;;5053631;28;20049;-62
2023/06/01 00:39:03;;;;;;;3.20;2.35;;;;;16.90;98851.00;;;;5053450;28;20049;-62
2023/06/01 00:41:31;;;;;;;4.47;2.80;;;;;16.70;98851.00;;;;5053647;28;20037;-62
2023/06/01 00:43:58;;;;;;;5.50;2.88;;;;;16.50;98848.00;;;;5053683;28;20056;-62
2023/06/01 00:46:26;;;;;;;4.90;2.20;;;;;16.50;98845.00;;;;5054880;28;20502;-62
2023/06/01 00:48:54;;;;;;;4.15;2.67;;;;;16.40;98838.00;;;;5053285;28;20049;-61
2023/06/01 00:51:21;;;;;;;3.97;2.55;;;;;16.30;98843.00;;;;5054651;28;20048;-61
2023/06/01 00:53:48;;;;;;;4.93;2.50;;;;;16.40;98842.00;;;;5054577;28;20041;-63
2023/06/01 00:56:16;;;;;;;4.32;2.90;;;;;16.50;98836.00;;;;5054546;28;20041;-62
2023/06/01 00:58:43;;;;;;;4.50;2.65;;;;;16.40;98840.00;;;;5054722;28;20041;-63
2023/06/01 01:01:18;;;;;;;5.50;2.60;;;;;16.40;98839.00;;;;5053525;28;20041;-62
2023/06/01 01:03:49;;;;;;;6.00;2.50;;;;;16.30;98835.00;;;;5037394;28;20067;-62
2023/06/01 01:06:30;;;;;;;5.05;2.65;;;;;16.30;98830.00;;;;5054665;28;20033;-61
2023/06/01 01:09:07;;;;;;;4.07;2.30;;;;;16.20;98836.00;;;;5058480;28;20047;-62
2023/06/01 01:11:37;;;;;;;4.60;2.58;;;;;16.20;98832.00;;;;5059039;28;20545;-62
2023/06/01 01:14:27;;;;;;;4.80;2.60;;;;;16.10;98841.00;;;;5057378;28;20045;-63
2023/06/01 01:17:26;;;;;;;7.88;3.13;;;;;16.20;98837.00;;;;5056262;28;20049;-62
2023/06/01 01:20:08;;;;;;;3.15;2.55;;;;;16.10;98840.00;;;;5042875;28;20068;-63
2023/06/01 01:22:40;;;;;;;5.03;2.58;;;;;16.20;98839.00;;;;5061253;28;20033;-62
2023/06/01 01:25:08;;;;;;;5.05;2.70;;;;;16.20;98843.00;;;;5060533;28;20128;-62
2023/06/01 01:27:55;;;;;;;2.92;2.33;;;;;16.20;98843.00;;;;5053549;28;20124;-63
2023/06/01 01:30:27;;;;;;;5.07;2.75;;;;;16.20;98844.00;;;;5035901;28;20126;-63
2023/06/01 01:32:55;;;;;;;3.67;2.30;;;;;16.20;98850.00;;;;5052574;28;20417;-63
2023/06/01 01:35:25;;;;;;;3.03;2.38;;;;;16.20;98846.00;;;;5036124;28;20136;-62
2023/06/01 01:37:55;;;;;;;4.53;2.70;;;;;16.10;98853.00;;;;5036130;28;20075;-63
2023/06/01 01:40:24;;;;;;;6.50;2.92;;;;;16.10;98842.00;;;;5052287;28;20041;-63
2023/06/01 01:42:51;;;;;;;9.25;3.00;;;;;16.10;98840.00;;;;5052310;28;20069;-63
2023/06/01 01:45:19;;;;;;;8.90;3.22;;;;;16.00;98830.00;;;;5052368;28;20413;-63
2023/06/01 01:47:57;;;;;;;4.97;2.47;;;;;15.80;98837.00;;;;5052522;28;20094;-62
2023/06/01 01:50:29;;;;;;;3.60;2.70;;;;;15.80;98840.00;;;;5052113;28;20049;-61
2023/06/01 01:52:56;;;;;;;6.78;2.88;;;;;15.70;98842.00;;;;5052333;28;20064;-61
2023/06/01 01:55:24;;;;;;;3.97;2.22;;;;;15.70;98835.00;;;;5052075;28;20095;-61
2023/06/01 01:57:52;;;;;;;4.38;2.63;;;;;15.60;98837.00;;;;5052410;28;20577;-61
2023/06/01 02:00:19;;;;;;;6.97;3.00;;;;;15.60;98838.00;;;;5052065;28;20053;-61
2023/06/01 02:02:46;;;;;;;5.65;2.42;;;;;15.40;98838.00;;;;5053357;28;20045;-61
2023/06/01 02:05:15;;;;;;;5.72;2.45;;;;;15.30;98838.00;;;;5051897;28;20045;-61
2023/06/01 02:07:41;;;;;;;5.70;2.50;;;;;15.30;98833.00;;;;5051683;28;20049;-61
2023/06/01 02:10:08;;;;;;;3.92;2.90;;;;;15.20;98826.00;;;;5052732;28;20043;-62
2023/06/01 02:12:35;;;;;;;5.47;3.03;;;;;15.20;98831.00;;;;5052958;28;20071;-61
2023/06/01 02:15:02;;;;;;;5.90;2.95;;;;;15.40;98830.00;;;;5051716;28;20041;-61
2023/06/01 02:17:28;;;;;;;5.22;2.65;;;;;15.50;98831.00;;;;5051796;28;20048;-62
2023/06/01 02:19:55;;;;;;;4.40;2.78;;;;;15.40;98834.00;;;;5051250;28;20497;-62
2023/06/01 02:22:22;;;;;;;3.38;2.25;;;;;15.20;98826.00;;;;5051140;28;20145;-63
2023/06/01 02:24:48;;;;;;;5.18;2.35;;;;;15.10;98821.00;;;;5051184;28;20083;-62
2023/06/01 02:27:15;;;;;;;4.13;2.60;;;;;15.10;98828.00;;;;5053081;28;20473;-62
2023/06/01 02:29:42;;;;;;;4.15;2.65;;;;;15.00;98816.00;;;;5050998;28;20107;-61
2023/06/01 02:32:08;;;;;;;5.28;2.90;;;;;15.00;98811.00;;;;5052741;28;20474;-62
2023/06/01 02:34:36;;;;;;;5.45;2.78;;;;;15.00;98823.00;;;;5052873;28;20048;-63
2023/06/01 02:37:04;;;;;;;4.70;3.05;;;;;15.00;98820.00;;;;5054496;28;20052;-62
2023/06/01 02:39:32;;;;;;;5.20;2.53;;;;;15.00;98820.00;;;;5051679;28;20128;-62
2023/06/01 02:42:00;;;;;;;4.38;2.95;;;;;14.90;98818.00;;;;5052020;28;20051;-61
2023/06/01 02:44:27;;;;;;;6.20;2.80;;;;;14.70;98815.00;;;;5052325;28;20045;-61
2023/06/01 02:46:54;;;;;;;4.43;3.05;;;;;14.60;98819.00;;;;5035389;28;20506;-62
2023/06/01 02:49:20;;;;;;;6.75;3.28;;;;;14.60;98816.00;;;;5051413;28;20110;-61
2023/06/01 02:51:47;;;;;;;9.38;3.10;;;;;14.60;98811.00;;;;5051477;28;20095;-61
2023/06/01 02:54:18;;;;;;;5.65;2.80;;;;;14.50;98811.00;;;;5035353;28;20456;-61
2023/06/01 02:56:45;;;;;;;4.53;2.60;;;;;14.50;98813.00;;;;5050796;28;20602;-61
2023/06/01 02:59:26;;;;;;;4.80;2.75;;;;;14.60;98817.00;;;;5052381;28;20406;-61
2023/06/01 03:01:58;;;;;;;4.82;3.17;;;;;14.50;98804.00;;;;5051106;28;20045;-60
2023/06/01 03:04:28;;;;;;;5.20;2.78;;;;;14.40;98810.00;;;;5050823;28;20045;-61
2023/06/01 03:06:58;;;;;;;4.45;2.97;;;;;14.40;98809.00;;;;5050761;28;20456;-62
2023/06/01 03:09:48;;;;;;;5.65;2.65;;;;;14.30;98804.00;;;;5048927;28;20414;-62
2023/06/01 03:12:42;;;;;;;6.32;2.97;;;;;14.20;98807.00;;;;5050862;28;20059;-61
2023/06/01 03:15:09;;;;;;;3.70;2.90;;;;;14.20;98808.00;;;;5050934;28;20063;-61
2023/06/01 03:17:36;;;;;;;7.68;3.55;;;;;14.30;98810.00;;;;5052374;28;20049;-62
2023/06/01 03:20:04;;;;;;;5.57;2.83;;;;;14.40;98810.00;;;;5056238;28;20565;-62
2023/06/01 03:22:34;;;;;;;5.55;3.03;;;;;14.40;98813.00;;;;5057589;28;20048;-62
2023/06/01 03:25:06;;;;;;;5.35;3.50;;;;;14.50;98809.00;;;;5053184;28;20099;-62
2023/06/01 03:27:33;;;;;;;5.53;3.40;;;;;14.60;98812.00;;;;5050624;28;20080;-62
2023/06/01 03:30:01;;;;;;;8.35;4.32;;;;;14.60;98817.00;;;;5051596;28;20049;-62
2023/06/01 03:32:28;;;;;;;4.70;2.97;;;;;14.60;98814.00;;;;5050823;28;20094;-62
2023/06/01 03:34:56;;;;;;;8.65;4.43;;;;;14.50;98814.00;;;;5050781;28;20426;-61
2023/06/01 03:37:22;;;;;;;5.55;3.70;;;;;14.50;98816.00;;;;5050588;28;20120;-62
2023/06/01 03:39:49;;;;;;;6.18;3.53;;;;;14.30;98819.00;;;;5050476;28;20051;-61
2023/06/01 03:42:19;;;;;;;4.35;2.72;;;;;14.20;98815.00;;;;5050575;28;20674;-61
2023/06/01 03:44:46;;;;;;;6.45;3.67;;;;;14.30;98812.00;;;;5050433;28;20079;-62
2023/06/01 03:47:14;;;;;;;4.00;3.25;;;;;14.30;98819.00;;;;5051833;28;20049;-62
2023/06/01 03:49:41;;;;;;;5.25;2.92;;;;;14.20;98822.00;;;;5051720;28;20052;-62
2023/06/01 03:52:10;;;;;;;6.00;3.20;;;;;14.10;98820.00;;;;5051162;28;20106;-61
2023/06/01 03:54:36;;;;;;;4.57;3.22;;;;;14.10;98822.00;;;;5054441;28;20037;-61
2023/06/01 03:57:09;;;;;;;5.80;3.50;;;;;14.20;98820.00;;;;5054817;28;20460;-61
2023/06/01 03:59:36;;;;;;;13.27;8.98;;;;;14.20;98820.00;;;;5055459;28;20120;-63
2023/06/01 04:02:04;;;;;;;6.38;5.00;;;;;14.30;98820.00;;;;5054262;28;20099;-60
2023/06/01 04:04:32;;;;;;;8.95;4.85;;;;;14.50;98821.00;;;;5055753;28;20044;-61
2023/06/01 04:07:00;;;;;;;11.05;4.60;;;;;14.60;98826.00;;;;5053982;28;20048;-62
2023/06/01 04:09:28;;;;;;;8.15;4.82;;;;;14.70;98826.00;;;;5055557;28;20072;-62
2023/06/01 04:11:55;;;;;;;7.10;5.82;;;;;14.60;98826.00;;;;5054058;28;20052;-62
2023/06/01 04:14:22;;;;;;;5.78;3.58;;;;;14.60;98833.00;;;;5054662;28;20045;-63
2023/06/01 04:16:48;;;;;;;5.15;3.42;;;;;14.60;98826.00;;;;5055446;28;20044;-65
2023/06/01 04:19:16;;;;;;;9.93;5.40;;;;;14.60;98830.00;;;;5054983;28;20075;-63
2023/06/01 04:21:43;;;;;;;5.80;3.45;;;;;14.60;98832.00;;;;5054027;28;20041;-63
2023/06/01 04:24:12;;;;;;;4.60;3.60;;;;;14.60;98837.00;;;;5055127;28;20072;-62
2023/06/01 04:26:39;;;;;;;5.63;3.47;;;;;14.60;98843.00;;;;5056126;28;20087;-63
2023/06/01 04:29:06;;;;;;;7.65;4.40;;;;;14.60;98829.00;;;;5054971;28;20049;-63
2023/06/01 04:31:32;;;;;;;5.57;3.47;;;;;14.60;98831.00;;;;5054190;28;20075;-63
2023/06/01 04:34:01;;;;;;;7.32;3.88;;;;;14.70;98832.00;;;;5053800;28;20087;-64
2023/06/01 04:36:29;;;;;;;7.05;4.28;;;;;14.80;98838.00;;;;5053855;28;20047;-63
2023/06/01 04:38:58;;;;;;;5.13;3.90;;;;;14.90;98836.00;;;;5053621;28;20053;-63
2023/06/01 04:41:25;;;;;;;6.00;4.22;;;;;15.00;98830.00;;;;5053783;28;20635;-62
2023/06/01 04:43:52;;;;;;;8.55;3.92;;;;;15.10;98837.00;;;;5053430;28;20131;-61
2023/06/01 04:46:23;;;;;;;5.20;3.20;;;;;15.10;98839.00;;;;5053344;28;20049;-61
2023/06/01 04:48:55;;;;;;;5.75;3.60;;;;;15.20;98832.00;;;;5053266;28;20051;-61
2023/06/01 04:51:23;;;;;;;6.18;4.07;;;;;15.40;98840.00;;;;5053212;28;20060;-62
2023/06/01 04:53:51;;;;;;;5.45;3.40;;;;;15.50;98842.00;;;;5053594;28;20040;-62
2023/06/01 04:56:29;;;;;;;4.78;3.42;;;;;15.60;98839.00;;;;5054785;28;20490;-62
2023/06/01 04:58:57;;;;;;;6.57;3.72;;;;;15.80;98839.00;;;;5054708;28;20455;-62
2023/06/01 05:01:29;;;;;;;6.22;3.83;;;;;15.80;98832.00;;;;5037195;28;20132;-63
2023/06/01 05:03:56;;;;;;;6.93;4.20;;;;;15.80;98839.00;;;;5053021;28;20041;-61
2023/06/01 05:06:25;;;;;;;11.00;4.55;;;;;15.80;98844.00;;;;5054909;28;20090;-62
2023/06/01 05:08:52;;;;;;;7.97;3.97;;;;;16.00;98836.00;;;;5036763;28;20067;-62
2023/06/01 05:11:18;;;;;;;4.95;3.40;;;;;16.20;98830.00;;;;5053723;28;20468;-62
2023/06/01 05:13:45;;;;;;;6.13;3.45;;;;;16.20;98829.00;;;;5053476;28;20047;-62
2023/06/01 05:16:12;;;;;;;8.43;3.92;;;;;16.30;98843.00;;;;5054325;28;20487;-62
2023/06/01 05:18:40;;;;;;;6.75;3.78;;;;;16.40;98838.00;;;;5053198;28;20131;-62
2023/06/01 05:21:07;;;;;;;10.43;5.43;;;;;16.40;98836.00;;;;5052451;28;20506;-62
2023/06/01 05:23:34;;;;;;;11.43;5.55;;;;;16.40;98844.00;;;;5036452;28;20048;-62
2023/06/01 05:26:03;;;;;;;12.98;5.78;;;;;16.50;98841.00;;;;5054215;28;20502;-62
2023/06/01 05:28:33;;;;;;;8.70;4.72;;;;;16.60;98844.00;;;;5053305;28;20076;-62
2023/06/01 05:31:02;;;;;;;9.38;5.00;;;;;16.80;98838.00;;;;5036361;28;20045;-63
2023/06/01 05:33:33;;;;;;;9.30;4.28;;;;;16.90;98837.00;;;;5052878;28;20040;-63
2023/06/01 05:36:00;;;;;;;8.63;4.00;;;;;16.90;98845.00;;;;5053265;28;20539;-63
2023/06/01 05:38:26;;;;;;;9.45;4.35;;;;;16.90;98834.00;;;;5052786;28;20547;-63
2023/06/01 05:40:53;;;;;;;10.73;3.65;;;;;16.90;98836.00;;;;5052452;28;20049;-62
2023/06/01 05:43:20;;;;;;;9.80;3.92;;;;;17.10;98841.00;;;;5052784;28;20098;-62
2023/06/01 05:45:48;;;;;;;8.52;3.88;;;;;17.20;98843.00;;;;5052163;28;20041;-63
2023/06/01 05:48:15;;;;;;;8.15;4.45;;;;;17.30;98835.00;;;;5052379;28;20052;-63
2023/06/01 05:50:47;;;;;;;8.02;4.68;;;;;17.40;98846.00;;;;5052164;28;20052;-63
2023/06/01 05:53:13;;;;;;;7.25;4.22;;;;;17.70;98845.00;;;;5035938;28;20461;-63
2023/06/01 05:55:41;;;;;;;9.13;5.40;;;;;17.80;98845.00;;;;5052254;28;20037;-63
2023/06/01 05:58:08;;;;;;;5.68;3.55;;;;;17.70;98840.00;;;;5037101;28;20127;-63
2023/06/01 06:00:35;;;;;;;8.25;4.30;;;;;17.70;98838.00;;;;5054669;28;20061;-63
2023/06/01 06:03:04;;;;;;;10.68;6.47;;;;;17.70;98837.00;;;;5051974;28;20041;-63
2023/06/01 06:05:30;;;;;;;9.88;4.90;;;;;17.80;98839.00;;;;5051778;28;20045;-61
2023/06/01 06:07:57;;;;;;;7.88;3.72;;;;;17.80;98835.00;;;;5051749;28;20144;-61
2023/06/01 06:10:24;;;;;;;7.63;4.75;;;;;18.00;98844.00;;;;5053021;28;20072;-61
2023/06/01 06:12:50;;;;;;;6.45;3.53;;;;;18.00;98832.00;;;;5053336;28;20076;-61
2023/06/01 06:15:17;;;;;;;7.40;3.15;;;;;18.10;98844.00;;;;5051211;28;20094;-62
2023/06/01 06:17:44;;;;;;;7.53;3.25;;;;;18.30;98845.00;;;;5053192;28;20136;-62
2023/06/01 06:20:11;;;;;;;12.50;3.10;;;;;18.50;98846.00;;;;5052005;28;20040;-61
2023/06/01 06:22:38;;;;;;;5.07;2.92;;;;;18.60;98843.00;;;;5053038;28;20044;-62
2023/06/01 06:25:05;;;;;;;5.20;2.90;;;;;18.70;98841.00;;;;5051957;28;20041;-62
2023/06/01 06:27:32;;;;;;;8.10;3.22;;;;;18.90;98846.00;;;;5053000;28;20120;-62
2023/06/01 06:29:58;;;;;;;7.82;3.60;;;;;19.00;98852.00;;;;5052714;28;20124;-62
2023/06/01 06:32:25;;;;;;;7.05;3.25;;;;;19.10;98842.00;;;;5052731;28;20044;-62
2023/06/01 06:34:52;;;;;;;5.32;3.15;;;;;19.10;98840.00;;;;5052560;28;20040;-63
2023/06/01 06:37:18;;;;;;;7.07;2.80;;;;;19.10;98842.00;;;;5052689;28;20049;-62
2023/06/01 06:39:45;;;;;;;6.68;2.75;;;;;19.20;98828.00;;;;5052485;28;20087;-62
2023/06/01 06:42:11;;;;;;;3.05;2.55;;;;;19.30;98838.00;;;;5051522;28;20399;-63
2023/06/01 06:44:38;;;;;;;6.15;2.97;;;;;19.40;98837.00;;;;5052481;28;20124;-63
2023/06/01 06:47:05;;;;;;;7.97;3.03;;;;;19.60;98839.00;;;;5052449;28;20048;-62
2023/06/01 06:49:32;;;;;;;5.30;2.63;;;;;19.70;98841.00;;;;5050925;28;20417;-62
2023/06/01 06:51:58;;;;;;;4.82;2.50;;;;;19.70;98838.00;;;;5051519;28;20045;-62
2023/06/01 06:54:25;;;;;;;4.50;2.72;;;;;19.80;98833.00;;;;5051336;28;20053;-62
2023/06/01 06:56:51;;;;;;;5.15;2.92;;;;;20.00;98837.00;;;;5052778;28;20132;-62
2023/06/01 06:59:18;;;;;;;5.90;2.55;;;;;20.00;98839.00;;;;5051724;28;20048;-62
2023/06/01 07:01:45;;;;;;;4.93;2.60;;;;;20.00;98838.00;;;;5052970;28;20041;-62
2023/06/01 07:04:12;;;;;;;6.28;2.78;;;;;20.10;98839.00;;;;5051493;28;20041;-62
2023/06/01 07:06:38;;;;;;;5.25;3.10;;;;;20.20;98834.00;;;;5052457;28;20494;-62
2023/06/01 07:09:05;;;;;;;6.03;2.97;;;;;20.30;98841.00;;;;5052861;28;20049;-62
2023/06/01 07:11:32;;;;;;;6.68;2.63;;;;;20.50;98836.00;;;;5052671;28;20049;-62
2023/06/01 07:13:59;;;;;;;5.50;2.35;;;;;20.50;98829.00;;;;5053932;28;20048;-61
2023/06/01 07:16:28;;;;;;;6.53;3.00;;;;;20.60;98833.00;;;;5053038;28;20421;-62
2023/06/01 07:18:56;;;;;;;6.70;2.80;;;;;20.70;98839.00;;;;5052158;28;20075;-64
2023/06/01 07:21:22;;;;;;;4.63;2.60;;;;;20.80;98832.00;;;;5056944;28;20044;-62
2023/06/01 07:23:49;;;;;;;8.93;3.00;;;;;20.80;98830.00;;;;5057916;28;20045;-63
2023/06/01 07:26:15;;;;;;;5.88;3.17;;;;;21.00;98835.00;;;;5054004;28;20490;-61
2023/06/01 07:28:42;;;;;;;6.32;2.47;;;;;21.10;98836.00;;;;5052558;28;20094;-61
2023/06/01 07:31:09;;;;;;;4.57;2.25;;;;;21.20;98830.00;;;;5050976;28;20119;-62
2023/06/01 07:33:36;;;;;;;4.95;2.42;;;;;21.30;98835.00;;;;5051633;28;20037;-61
2023/06/01 07:36:03;;;;;;;2.47;2.03;;;;;21.30;98834.00;;;;5052413;28;20041;-60
2023/06/01 07:38:31;;;;;;;6.03;2.67;;;;;21.40;98838.00;;;;5052595;28;20121;-61
2023/06/01 07:40:57;;;;;;;5.95;3.00;;;;;21.50;98839.00;;;;5052151;28;20159;-62
2023/06/01 07:43:24;;;;;;;5.80;2.42;;;;;21.60;98843.00;;;;5052160;28;20041;-63
2023/06/01 07:45:51;;;;;;;7.82;2.70;;;;;21.70;98847.00;;;;5051683;28;20076;-63
2023/06/01 07:48:17;;;;;;;4.45;3.10;;;;;21.90;98838.00;;;;5051020;28;20076;-62
2023/06/01 07:50:44;;;;;;;7.60;2.88;;;;;22.00;98838.00;;;;5051928;28;20378;-62
2023/06/01 07:53:11;;;;;;;5.25;2.33;;;;;22.20;98846.00;;;;5052458;28;20417;-61
2023/06/01 07:55:38;;;;;;;4.18;2.03;;;;;22.30;98841.00;;;;5051163;28;20037;-62
2023/06/01 07:58:05;;;;;;;4.07;2.53;;;;;22.20;98833.00;;;;5052091;28;20398;-63
2023/06/01 08:00:31;;;;;;;5.53;2.03;;;;;22.40;98837.00;;;;5052014;28;20431;-63
2023/06/01 08:02:59;;;;;;;5.80;2.03;;;;;22.60;98832.00;;;;5052186;28;20041;-63
2023/06/01 08:05:26;;;;;;;5.25;2.20;;;;;22.70;98833.00;;;;5052143;28;20529;-63
2023/06/01 08:07:53;;;;;;;4.28;2.17;;;;;22.80;98833.00;;;;5052352;28;20057;-61
2023/06/01 08:10:19;;;;;;;5.40;2.03;;;;;22.80;98826.00;;;;5052171;28;20060;-62
2023/06/01 08:12:47;;;;;;;5.50;2.83;;;;;22.90;98825.00;;;;5058173;28;20472;-61
2023/06/01 08:15:15;;;;;;;6.00;2.30;;;;;23.00;98822.00;;;;5053542;28;20079;-60
2023/06/01 08:17:43;;;;;;;5.22;2.03;;;;;23.00;98819.00;;;;5052688;28;20529;-61
2023/06/01 08:20:10;;;;;;;5.65;2.40;;;;;23.10;98819.00;;;;5057262;28;20045;-62
2023/06/01 08:22:37;;;;;;;4.65;2.63;;;;;23.10;98821.00;;;;5059106;28;20037;-62
2023/06/01 08:25:05;;;;;;;5.78;2.53;;;;;23.30;98816.00;;;;5061361;28;20052;-62
2023/06/01 08:27:32;;;;;;;5.40;1.95;;;;;23.40;98822.00;;;;5065315;28;20064;-63
2023/06/01 08:29:58;;;;;;;3.00;2.17;;;;;23.60;98816.00;;;;5064906;28;20132;-61
2023/06/01 08:32:25;;;;;;;3.88;2.22;;;;;23.60;98817.00;;;;5064606;28;20072;-63
2023/06/01 08:34:52;;;;;;;6.18;1.90;;;;;23.60;98818.00;;;;5065565;28;20033;-64
2023/06/01 08:37:18;;;;;;;3.05;2.03;;;;;23.60;98820.00;;;;5064757;28;20059;-63
2023/06/01 08:39:46;;;;;;;10.75;2.40;;;;;23.70;98816.00;;;;5066879;28;20037;-63
2023/06/01 08:42:26;;;;;;;4.30;1.98;;;;;23.70;98819.00;;;;5066495;28;20059;-62
2023/06/01 08:44:55;;;;;;;3.17;2.00;;;;;23.80;98821.00;;;;5063070;28;20037;-62
2023/06/01 08:47:25;;;;;;;7.35;2.00;;;;;23.70;98820.00;;;;5056253;28;20095;-64
2023/06/01 08:49:52;;;;;;;2.63;1.85;;;;;23.70;98825.00;;;;5056072;28;20045;-63
2023/06/01 08:52:21;;;;;;;6.95;2.47;;;;;23.80;98820.00;;;;5055367;28;20462;-63
2023/06/01 08:54:48;;;;;;;2.90;2.30;;;;;24.00;98818.00;;;;5054531;28;20044;-62
2023/06/01 08:57:15;;;;;;;5.35;2.35;;;;;24.10;98810.00;;;;5054596;28;20063;-61
2023/06/01 08:59:45;;;;;;;4.40;2.00;;;;;24.30;98804.00;;;;5054480;28;20461;-60
2023/06/01 09:02:12;;;;;;;6.32;1.83;;;;;24.30;98812.00;;;;5054674;28;20045;-62
2023/06/01 09:04:42;;;;;;;2.22;1.83;;;;;24.40;98807.00;;;;5054402;28;20494;-63
2023/06/01 09:07:09;;;;;;;4.97;2.00;;;;;24.50;98809.00;;;;5054723;28;20045;-64
2023/06/01 09:09:35;;;;;;;5.25;1.98;;;;;24.50;98814.00;;;;5052837;28;20512;-61
2023/06/01 09:12:33;;;;;;;4.95;2.10;;;;;24.50;98802.00;;;;5054198;28;20072;-64
2023/06/01 09:15:10;;;;;;;2.88;2.05;;;;;24.60;98804.00;;;;5054232;28;20501;-62
2023/06/01 09:17:38;;;;;;;4.03;2.08;;;;;24.60;98803.00;;;;5054392;28;20504;-64
2023/06/01 09:20:05;;;;;;;3.50;1.92;;;;;24.80;98810.00;;;;5053119;28;20045;-64
2023/06/01 09:22:42;;;;;;;2.20;1.77;;;;;24.90;98797.00;;;;5054574;28;20119;-63
2023/06/01 09:25:10;;;;;;;3.97;1.98;;;;;24.90;98804.00;;;;5052833;28;20041;-61
2023/06/01 09:27:51;;;;;;;7.40;2.40;;;;;24.90;98787.00;;;;5052897;28;20044;-63
2023/06/01 09:30:20;;;;;;;3.50;2.10;;;;;25.10;98796.00;;;;5054178;28;20512;-61
2023/06/01 09:32:50;;;;;;;6.40;1.90;;;;;25.30;98799.00;;;;5054157;28;20533;-62
2023/06/01 09:35:40;;;;;;;5.13;1.88;;;;;25.20;98800.00;;;;5054256;28;20413;-62
2023/06/01 09:38:07;;;;;;;2.30;1.60;;;;;25.20;98792.00;;;;5051197;28;20148;-63
2023/06/01 09:40:35;;;;;;;3.42;1.60;;;;;25.30;98796.00;;;;5054215;28;20092;-64
2023/06/01 09:43:02;;;;;;;3.42;1.80;;;;;25.20;98793.00;;;;5054190;28;20069;-62
2023/06/01 09:45:31;;;;;;;2.40;1.60;;;;;25.30;98793.00;;;;5055301;28;20045;-64
2023/06/01 09:48:17;;;;;;;4.80;1.88;;;;;25.30;98785.00;;;;5055484;28;20045;-63
2023/06/01 09:50:44;;;;;;;3.90;2.28;;;;;25.40;98788.00;;;;5053211;28;20205;-63
2023/06/01 09:53:10;;;;;;;4.53;2.22;;;;;25.60;98786.00;;;;5055060;28;20055;-63
2023/06/01 09:55:57;;;;;;;5.20;2.17;;;;;25.70;98777.00;;;;5055085;28;20128;-63
2023/06/01 09:58:24;;;;;;;6.65;2.20;;;;;25.80;98771.00;;;;5054986;28;20083;-64
2023/06/01 10:00:51;;;;;;;7.00;2.30;;;;;25.90;98786.00;;;;5053105;28;20059;-62
2023/06/01 10:03:22;;;;;;;7.45;2.03;;;;;26.00;98782.00;;;;5053512;28;20052;-62
2023/06/01 10:05:49;;;;;;;2.65;2.00;;;;;26.00;98785.00;;;;5053223;28;20033;-64
2023/06/01 10:08:17;;;;;;;5.32;1.90;;;;;26.10;98783.00;;;;5053330;28;20044;-62
2023/06/01 10:10:48;;;;;;;6.15;1.85;;;;;26.10;98782.00;;;;5053148;28;20502;-62
2023/06/01 10:13:17;;;;;;;;;;;;;26.10;98774.00;;;;5052623;28;20048;-63
2023/06/01 10:15:44;;;;;;;5.22;2.10;;;;;26.30;98777.00;;;;5052900;28;19921;-64
2023/06/01 10:18:11;;;;;;;3.10;1.60;;;;;26.30;98781.00;;;;5053234;28;20082;-64
2023/06/01 10:20:39;;;;;;;5.15;2.38;;;;;26.30;98781.00;;;;5052777;28;20049;-63
2023/06/01 10:23:06;;;;;;;2.45;2.00;;;;;26.30;98772.00;;;;5052904;28;20123;-63
2023/06/01 10:25:48;;;;;;;4.88;2.10;;;;;26.50;98774.00;;;;5052913;28;20044;-62
2023/06/01 10:28:16;;;;;;;2.15;1.98;;;;;26.50;98774.00;;;;5053203;28;20041;-63
2023/06/01 10:30:44;;;;;;;3.88;2.22;;;;;26.70;98769.00;;;;5052638;28;20099;-62
2023/06/01 10:33:11;;;;;;;4.93;2.13;;;;;26.70;98772.00;;;;5053133;28;20060;-63
2023/06/01 10:35:41;;;;;;;4.85;2.53;;;;;26.70;98768.00;;;;5052539;28;20045;-63
2023/06/01 10:38:12;;;;;;;3.10;1.77;;;;;26.60;98770.00;;;;5052852;28;20119;-63
2023/06/01 10:40:40;;;;;;;5.45;1.90;;;;;26.70;98765.00;;;;5052402;28;20044;-62
2023/06/01 10:43:28;;;;;;;2.10;1.73;;;;;26.80;98766.00;;;;5052798;28;20045;-62
2023/06/01 10:45:54;;;;;;;6.22;2.00;;;;;26.80;98761.00;;;;5052570;28;20037;-63
2023/06/01 10:48:51;;;;;;;6.85;2.53;;;;;26.90;98760.00;;;;5052509;28;20053;-63
2023/06/01 10:51:20;;;;;;;3.70;1.63;;;;;26.90;98767.00;;;;5052497;28;20494;-62
2023/06/01 10:53:47;;;;;;;3.05;1.80;;;;;26.80;98755.00;;;;5052609;28;20514;-62
2023/06/01 10:56:16;;;;;;;3.40;1.90;;;;;26.80;98754.00;;;;5051253;28;20049;-62
2023/06/01 10:58:43;;;;;;;3.60;2.20;;;;;26.80;98762.00;;;;5052580;28;20131;-63
2023/06/01 11:01:17;;;;;;;6.38;2.20;;;;;26.80;98758.00;;;;5052002;28;20048;-62
2023/06/01 11:03:45;;;;;;;4.05;2.28;;;;;26.90;98744.00;;;;5052445;28;20044;-63
2023/06/01 11:06:25;;;;;;;3.75;2.15;;;;;26.90;98752.00;;;;5052165;28;20488;-63
2023/06/01 11:08:57;;;;;;;3.42;1.80;;;;;26.80;98743.00;;;;5052167;28;20045;-63
2023/06/01 11:11:51;;;;;;;6.15;2.08;;;;;26.90;98739.00;;;;5052361;28;20095;-64
2023/06/01 11:14:21;;;;;;;5.47;2.35;;;;;26.90;98751.00;;;;5052310;28;20124;-64
2023/06/01 11:16:47;;;;;;;2.97;1.95;;;;;27.20;98746.00;;;;5054024;28;20547;-63
2023/06/01 11:19:24;;;;;;;5.78;2.22;;;;;27.40;98741.00;;;;5059274;28;20120;-63
2023/06/01 11:22:10;;;;;;;2.83;1.90;;;;;27.50;98733.00;;;;5054396;28;20045;-62
2023/06/01 11:24:43;;;;;;;3.92;2.10;;;;;27.60;98733.00;;;;5053829;28;20075;-63
2023/06/01 11:27:11;;;;;;;13.27;2.38;;;;;27.60;98734.00;;;;5055853;28;20045;-62
2023/06/01 11:29:38;;;;;;;4.40;2.40;;;;;27.60;98738.00;;;;5053568;28;20139;-63
2023/06/01 11:32:06;;;;;;;4.63;2.10;;;;;27.80;98732.00;;;;5052108;28;20047;-62
2023/06/01 11:34:37;;;;;;;4.07;2.03;;;;;27.80;98735.00;;;;5051977;28;20068;-62
2023/06/01 11:37:05;;;;;;;3.95;1.88;;;;;28.00;98723.00;;;;5052004;28;20037;-62
2023/06/01 11:39:32;;;;;;;6.35;2.58;;;;;28.20;98720.00;;;;5051433;28;20045;-62
2023/06/01 11:42:16;;;;;;;4.47;2.10;;;;;28.20;98719.00;;;;5051747;28;20045;-62
2023/06/01 11:44:56;;;;;;;3.63;2.05;;;;;28.10;98710.00;;;;5051515;28;20041;-63
2023/06/01 11:47:27;;;;;;;3.58;2.10;;;;;28.10;98723.00;;;;5051704;28;20047;-62
2023/06/01 11:49:54;;;;;;;3.33;1.80;;;;;28.20;98719.00;;;;5051452;28;20502;-62
2023/06/01 11:52:21;;;;;;;3.22;1.80;;;;;28.20;98725.00;;;;5051414;28;20048;-64
2023/06/01 11:54:48;;;;;;;3.85;2.25;;;;;28.20;98720.00;;;;5051865;28;20044;-62
2023/06/01 11:57:14;;;;;;;4.82;2.28;;;;;28.20;98713.00;;;;5052756;28;20037;-63
2023/06/01 11:59:49;;;;;;;4.13;1.92;;;;;28.20;98716.00;;;;5053121;28;20048;-63
2023/06/01 12:02:26;;;;;;;3.47;1.80;;;;;28.30;98711.00;;;;5053480;28;20128;-63
2023/06/01 12:04:58;;;;;;;3.35;1.90;;;;;28.30;98706.00;;;;5052671;28;20048;-63
2023/06/01 12:07:26;;;;;;;5.95;2.38;;;;;28.10;98706.00;;;;5053107;28;20478;-63
2023/06/01 12:09:53;;;;;;;6.95;2.30;;;;;28.20;98705.00;;;;5052423;28;20060;-63
2023/06/01 12:12:24;;;;;;;4.43;2.30;;;;;28.10;98698.00;;;;5052115;28;20044;-63
2023/06/01 12:14:51;;;;;;;2.83;1.80;;;;;28.10;98697.00;;;;5055833;28;20045;-62
2023/06/01 12:17:18;;;;;;;3.75;1.90;;;;;28.20;98700.00;;;;5055913;28;20037;-61
2023/06/01 12:19:47;;;;;;;3.95;2.30;;;;;28.10;98699.00;;;;5055396;28;20049;-61
2023/06/01 12:22:16;;;;;;;3.08;1.98;;;;;28.00;98690.00;;;;5055188;28;20498;-61
2023/06/01 12:24:44;;;;;;;4.38;2.00;;;;;28.10;98693.00;;;;5055629;28;20045;-62
2023/06/01 12:27:16;;;;;;;2.78;2.08;;;;;28.30;98691.00;;;;5055327;28;20099;-61
2023/06/01 12:29:44;;;;;;;3.75;2.20;;;;;28.30;98688.00;;;;5055144;28;20182;-62